Time;durP1;ratioP1;P1;durP2;ratioP2;P2;SDS_P1;SDS_P2;PMS_P1;PMS_P2;Temp;Humidity;BMP_temperature;BMP_pressure;BME280_temperature;BME280_humidity;BME280_pressure;Samples;Min_cycle;Max_cycle;Signal;HPM_P1;HPM_P2
2023/12/13 00:00:10;;;;;;;17.42;15.55;;;7.90;99.90;;;;;;5076839;28;20196;-77
2023/12/13 00:02:36;;;;;;;16.90;15.07;;;7.90;99.90;;;;;;5075351;28;20200;-77
2023/12/13 00:05:01;;;;;;;17.48;14.80;;;7.80;99.90;;;;;;5076866;28;20709;-77
2023/12/13 00:07:27;;;;;;;16.73;15.00;;;7.90;99.90;;;;;;5075049;28;20205;-77
2023/12/13 00:09:53;;;;;;;16.05;14.18;;;7.90;99.90;;;;;;5075217;28;20201;-77
2023/12/13 00:12:18;;;;;;;16.23;14.52;;;7.80;99.90;;;;;;5075402;28;20234;-77
2023/12/13 00:14:44;;;;;;;16.70;14.90;;;7.70;99.90;;;;;;5075802;28;20181;-77
2023/12/13 00:17:14;;;;;;;17.42;15.52;;;7.60;99.90;;;;;;5074939;28;20193;-77
2023/12/13 00:19:40;;;;;;;22.80;18.35;;;7.40;99.90;;;;;;5076119;28;20162;-77
2023/12/13 00:22:05;;;;;;;19.17;17.05;;;7.30;99.90;;;;;;5074826;28;20176;-77
2023/12/13 00:24:31;;;;;;;20.98;18.77;;;7.20;99.90;;;;;;5076063;28;20644;-77
2023/12/13 00:26:57;;;;;;;21.90;18.73;;;7.00;99.90;;;;;;5075050;28;20229;-77
2023/12/13 00:29:22;;;;;;;28.58;21.30;;;7.00;99.90;;;;;;5075120;28;20174;-77
2023/12/13 00:31:48;;;;;;;21.95;18.60;;;6.90;99.90;;;;;;5075808;28;20209;-77
2023/12/13 00:34:14;;;;;;;24.00;19.77;;;6.90;99.90;;;;;;5075565;28;20193;-77
2023/12/13 00:36:39;;;;;;;25.38;20.67;;;6.90;99.90;;;;;;5074594;28;20243;-77
2023/12/13 00:39:05;;;;;;;27.63;22.13;;;7.00;99.90;;;;;;5075031;28;20173;-77
2023/12/13 00:41:31;;;;;;;30.08;23.33;;;7.10;99.90;;;;;;5075852;28;20208;-77
2023/12/13 00:43:56;;;;;;;26.77;22.27;;;7.20;99.90;;;;;;5074541;28;20184;-77
2023/12/13 00:46:22;;;;;;;25.20;20.65;;;7.30;99.90;;;;;;5075971;28;20247;-77
2023/12/13 00:48:52;;;;;;;25.88;20.77;;;7.30;99.90;;;;;;5075074;28;20201;-77
2023/12/13 00:51:19;;;;;;;23.17;19.88;;;7.40;99.90;;;;;;5076543;28;20282;-77
2023/12/13 00:53:45;;;;;;;23.95;20.90;;;7.50;99.90;;;;;;5075222;28;20230;-77
2023/12/13 00:56:11;;;;;;;22.15;19.48;;;7.50;99.90;;;;;;5075479;28;20284;-77
2023/12/13 00:58:37;;;;;;;21.45;19.15;;;7.60;99.90;;;;;;5076486;28;20208;-77
2023/12/13 01:01:02;;;;;;;19.75;17.75;;;7.60;99.90;;;;;;5075196;28;20201;-77
2023/12/13 01:03:28;;;;;;;20.83;18.65;;;7.60;99.90;;;;;;5075209;28;20268;-77
2023/12/13 01:05:53;;;;;;;21.00;18.50;;;7.60;99.90;;;;;;5075986;28;20260;-77
2023/12/13 01:08:19;;;;;;;20.15;17.75;;;7.50;99.90;;;;;;5076148;28;20269;-77
2023/12/13 01:10:44;;;;;;;20.52;18.42;;;7.40;99.90;;;;;;5074982;28;20228;-77
2023/12/13 01:13:10;;;;;;;20.73;18.52;;;7.30;99.90;;;;;;5075066;28;20231;-77
2023/12/13 01:15:36;;;;;;;20.55;18.35;;;7.20;99.90;;;;;;5074736;28;20708;-77
2023/12/13 01:18:03;;;;;;;21.67;18.80;;;7.20;99.90;;;;;;5074857;28;20205;-77
2023/12/13 01:20:28;;;;;;;21.20;18.90;;;7.10;99.90;;;;;;5076003;28;20174;-77
2023/12/13 01:22:54;;;;;;;25.10;21.27;;;7.10;99.90;;;;;;5074507;28;20189;-77
2023/12/13 01:25:19;;;;;;;21.58;19.27;;;7.10;99.90;;;;;;5074742;28;20182;-79
2023/12/13 01:27:45;;;;;;;24.90;20.80;;;7.10;99.90;;;;;;5074481;28;20197;-78
2023/12/13 01:30:11;;;;;;;22.73;19.63;;;7.20;99.90;;;;;;5074659;28;20227;-78
2023/12/13 01:32:37;;;;;;;25.23;21.20;;;7.20;99.90;;;;;;5074736;28;20200;-78
2023/12/13 01:35:02;;;;;;;21.45;19.23;;;7.30;99.90;;;;;;5074418;28;20192;-78
2023/12/13 01:37:29;;;;;;;21.13;18.83;;;7.30;99.90;;;;;;5074445;28;20197;-78
2023/12/13 01:39:56;;;;;;;20.42;18.33;;;7.40;99.90;;;;;;5074841;28;20184;-78
2023/12/13 01:42:23;;;;;;;20.13;18.02;;;7.40;99.90;;;;;;5074454;28;20177;-78
2023/12/13 01:44:49;;;;;;;21.52;19.23;;;7.50;99.90;;;;;;5074285;28;20226;-78
2023/12/13 01:47:14;;;;;;;21.25;18.92;;;7.50;99.90;;;;;;5075607;28;20197;-78
2023/12/13 01:49:40;;;;;;;20.85;18.65;;;7.60;99.90;;;;;;5074803;28;20213;-78
2023/12/13 01:52:07;;;;;;;19.50;17.58;;;7.60;99.90;;;;;;5074158;28;20523;-78
2023/12/13 01:54:34;;;;;;;18.65;16.75;;;7.60;99.90;;;;;;5074616;28;20173;-78
2023/12/13 01:57:00;;;;;;;18.88;16.92;;;7.60;99.90;;;;;;5074241;28;20193;-78
2023/12/13 01:59:28;;;;;;;19.02;17.13;;;7.60;99.90;;;;;;5073817;28;20193;-78
2023/12/13 03:14:04;;;;;;;12.52;11.32;;;7.50;99.90;;;;;;1805803;23;21821;-87
2023/12/13 03:16:29;;;;;;;12.13;10.93;;;7.50;99.90;;;;;;5012259;28;20219;-86
2023/12/13 03:18:55;;;;;;;12.18;10.55;;;7.50;99.90;;;;;;5016365;28;20183;-86
2023/12/13 03:21:20;;;;;;;12.70;11.45;;;7.50;99.90;;;;;;5016394;28;20179;-86
2023/12/13 03:23:46;;;;;;;12.43;10.88;;;7.50;99.90;;;;;;5017187;28;20566;-86
2023/12/13 03:26:11;;;;;;;16.83;11.10;;;7.50;99.90;;;;;;5016203;28;20179;-86
2023/12/13 03:28:37;;;;;;;11.85;10.70;;;7.50;99.90;;;;;;5016076;28;20207;-86
2023/12/13 03:31:10;;;;;;;11.02;9.93;;;7.50;99.90;;;;;;5017205;28;20210;-86
2023/12/13 03:33:35;;;;;;;11.32;10.23;;;7.50;99.90;;;;;;5017338;28;20163;-86
2023/12/13 03:36:01;;;;;;;10.38;9.43;;;7.60;99.90;;;;;;5015936;28;20182;-86
2023/12/13 03:38:26;;;;;;;9.82;8.85;;;7.60;99.90;;;;;;5016246;28;20282;-86
2023/12/13 03:40:52;;;;;;;9.75;8.80;;;7.60;99.90;;;;;;5016866;28;20221;-86
2023/12/13 03:43:18;;;;;;;12.43;8.98;;;7.60;99.90;;;;;;5017297;28;20184;-86
2023/12/13 03:45:43;;;;;;;9.65;8.75;;;7.60;99.90;;;;;;5015865;28;20176;-86
2023/12/13 03:48:09;;;;;;;10.65;8.40;;;7.60;99.90;;;;;;5016069;28;20203;-86
2023/12/13 03:50:34;;;;;;;11.07;8.57;;;7.60;99.90;;;;;;5015679;28;20206;-86
2023/12/13 03:53:00;;;;;;;8.55;7.68;;;7.70;99.90;;;;;;5015708;28;20176;-86
2023/12/13 03:55:25;;;;;;;10.10;7.70;;;7.60;99.90;;;;;;5016731;28;20255;-86
2023/12/13 03:57:51;;;;;;;9.07;6.03;;;7.70;99.90;;;;;;5015444;28;20192;-86
2023/12/13 04:00:17;;;;;;;8.45;5.47;;;7.60;99.90;;;;;;5015898;28;20180;-86
2023/12/13 04:02:43;;;;;;;10.73;5.00;;;7.70;99.90;;;;;;5015902;28;20203;-86
2023/12/13 04:05:08;;;;;;;7.95;5.05;;;7.80;99.90;;;;;;5015546;28;20537;-86
2023/12/13 04:07:34;;;;;;;5.95;4.57;;;7.80;99.90;;;;;;5015747;28;20204;-86
2023/12/13 04:10:00;;;;;;;10.05;4.68;;;7.80;99.90;;;;;;5016194;28;20299;-86
2023/12/13 04:12:25;;;;;;;9.13;4.55;;;7.80;99.90;;;;;;5015956;28;20187;-86
2023/12/13 04:14:51;;;;;;;7.60;4.25;;;7.80;99.90;;;;;;5015963;28;20350;-86
2023/12/13 04:17:17;;;;;;;6.85;4.70;;;7.80;99.90;;;;;;5015238;28;20230;-86
2023/12/13 04:19:42;;;;;;;9.55;5.00;;;7.70;99.90;;;;;;5016042;28;20210;-86
2023/12/13 04:22:08;;;;;;;11.27;9.07;;;7.60;99.90;;;;;;5015453;28;20605;-86
2023/12/13 04:24:33;;;;;;;17.77;14.88;;;7.60;99.90;;;;;;5016026;28;20205;-86
2023/12/13 04:26:59;;;;;;;35.85;31.95;;;7.60;99.90;;;;;;5015847;28;20199;-86
2023/12/13 04:29:25;;;;;;;31.60;27.83;;;7.60;99.90;;;;;;5014424;28;20175;-86
2023/12/13 04:31:50;;;;;;;28.80;25.70;;;7.60;99.90;;;;;;5014871;28;20252;-86
2023/12/13 04:34:16;;;;;;;50.53;45.13;;;7.60;99.90;;;;;;5015516;28;20250;-86
2023/12/13 04:36:42;;;;;;;28.75;26.00;;;7.60;99.90;;;;;;5015928;28;20192;-86
2023/12/13 04:39:08;;;;;;;16.17;13.77;;;7.60;99.90;;;;;;5014872;28;20182;-86
2023/12/13 04:41:37;;;;;;;11.05;9.38;;;7.70;99.90;;;;;;5014891;28;20179;-86
2023/12/13 04:44:02;;;;;;;11.70;7.47;;;7.70;99.90;;;;;;5014797;28;20266;-86
2023/12/13 04:46:28;;;;;;;11.18;7.68;;;7.60;99.90;;;;;;5015427;28;20608;-86
2023/12/13 04:48:53;;;;;;;9.20;6.35;;;7.70;99.90;;;;;;5014778;28;20670;-86
2023/12/13 04:51:19;;;;;;;7.25;6.55;;;7.70;99.90;;;;;;5014981;28;20294;-86
2023/12/13 04:53:45;;;;;;;9.93;8.30;;;7.70;99.90;;;;;;5014903;28;20263;-86
2023/12/13 04:56:10;;;;;;;8.85;7.40;;;7.70;99.90;;;;;;5014797;28;20546;-86
2023/12/13 04:58:36;;;;;;;7.28;6.47;;;7.70;99.90;;;;;;5014782;28;20246;-86
2023/12/13 05:01:01;;;;;;;10.75;7.30;;;7.60;99.90;;;;;;5014833;28;20267;-86
2023/12/13 05:03:28;;;;;;;9.80;7.47;;;7.60;99.90;;;;;;5014406;28;20183;-86
2023/12/13 05:05:53;;;;;;;7.35;5.10;;;7.50;99.90;;;;;;5014694;28;20211;-86
2023/12/13 05:08:19;;;;;;;6.07;4.50;;;7.60;99.90;;;;;;5014323;28;20257;-86
2023/12/13 05:10:44;;;;;;;6.75;4.28;;;7.60;99.90;;;;;;5014806;28;20210;-86
2023/12/13 05:13:10;;;;;;;9.77;4.70;;;7.60;99.90;;;;;;5015395;28;20295;-86
2023/12/13 05:15:36;;;;;;;6.97;4.90;;;7.60;99.90;;;;;;5014482;28;20199;-86
2023/12/13 05:18:02;;;;;;;5.97;4.65;;;7.60;99.90;;;;;;5014029;28;20207;-86
2023/12/13 05:20:28;;;;;;;6.50;4.30;;;7.60;99.90;;;;;;5014386;28;20274;-86
2023/12/13 05:22:53;;;;;;;9.02;4.20;;;7.60;99.90;;;;;;5014478;28;20302;-86
2023/12/13 05:25:20;;;;;;;10.52;4.20;;;7.60;99.90;;;;;;5014322;28;20183;-86
2023/12/13 05:27:45;;;;;;;7.30;4.40;;;7.60;99.90;;;;;;5014942;28;20199;-86
2023/12/13 05:30:31;;;;;;;6.82;4.07;;;7.60;99.90;;;;;;5013978;28;20294;-87
2023/12/13 05:33:08;;;;;;;8.20;4.45;;;7.60;99.90;;;;;;5014723;28;20261;-86
2023/12/13 05:35:34;;;;;;;6.97;3.80;;;7.60;99.90;;;;;;5015123;28;20217;-86
2023/12/13 05:38:00;;;;;;;6.45;4.40;;;7.70;99.90;;;;;;5014098;28;20199;-86
2023/12/13 05:40:25;;;;;;;5.85;3.75;;;7.70;99.90;;;;;;5013747;28;20179;-86
2023/12/13 05:42:51;;;;;;;8.70;4.13;;;7.80;99.90;;;;;;5014626;28;20288;-86
2023/12/13 05:45:17;;;;;;;7.32;3.53;;;7.80;99.90;;;;;;5013686;28;20210;-86
2023/12/13 05:47:42;;;;;;;5.85;3.40;;;7.70;99.90;;;;;;5013864;28;20199;-86
2023/12/13 05:50:08;;;;;;;6.78;4.07;;;7.70;99.90;;;;;;5013520;28;20210;-86
2023/12/13 05:52:34;;;;;;;6.57;3.50;;;7.70;99.90;;;;;;5013499;28;20184;-86
2023/12/13 05:55:00;;;;;;;7.40;3.63;;;7.70;99.90;;;;;;5014350;28;20179;-85
2023/12/13 05:57:26;;;;;;;6.05;4.03;;;7.70;99.90;;;;;;5013929;28;20203;-87
2023/12/13 05:59:52;;;;;;;7.80;4.70;;;7.70;99.90;;;;;;5013900;28;20175;-85
2023/12/13 06:02:21;;;;;;;7.30;3.90;;;7.70;99.90;;;;;;5013415;28;20179;-85
2023/12/13 06:04:52;;;;;;;4.30;3.55;;;7.70;99.90;;;;;;5013830;28;20547;-86
2023/12/13 06:07:18;;;;;;;7.85;3.70;;;7.60;99.90;;;;;;5014112;28;20262;-86
2023/12/13 06:09:44;;;;;;;8.00;4.15;;;7.60;99.90;;;;;;5013594;28;20171;-87
2023/12/13 06:12:11;;;;;;;8.70;3.85;;;7.60;99.90;;;;;;5013929;28;20262;-85
2023/12/13 06:14:40;;;;;;;8.18;3.78;;;7.60;99.90;;;;;;5013341;28;20192;-86
2023/12/13 06:17:05;;;;;;;7.20;3.80;;;7.60;99.90;;;;;;5013360;28;20282;-86
2023/12/13 06:19:32;;;;;;;9.20;4.38;;;7.60;99.90;;;;;;5013301;28;20266;-86
2023/12/13 06:21:58;;;;;;;12.00;4.07;;;7.60;99.90;;;;;;5014251;28;20314;-86
2023/12/13 06:24:24;;;;;;;6.47;3.70;;;7.60;99.90;;;;;;5013026;28;20246;-86
2023/12/13 06:26:49;;;;;;;6.50;3.95;;;7.60;99.90;;;;;;5014524;28;20207;-86
2023/12/13 06:29:15;;;;;;;6.07;3.88;;;7.60;99.90;;;;;;5013067;28;20185;-85
2023/12/13 06:31:41;;;;;;;9.02;3.65;;;7.60;99.90;;;;;;5014336;28;20243;-85
2023/12/13 06:34:07;;;;;;;7.10;3.42;;;7.60;99.90;;;;;;5013570;28;20184;-85
2023/12/13 06:36:32;;;;;;;7.60;3.30;;;7.60;99.90;;;;;;5015428;28;20183;-85
2023/12/13 06:38:58;;;;;;;7.50;3.50;;;7.60;99.90;;;;;;5012974;28;20628;-85
2023/12/13 06:41:23;;;;;;;10.77;3.85;;;7.60;99.90;;;;;;5010612;28;20267;-84
2023/12/13 06:43:54;;;;;;;7.63;3.38;;;7.50;99.90;;;;;;5012073;28;20230;-85
2023/12/13 06:46:22;;;;;;;7.63;3.67;;;7.50;99.90;;;;;;5020329;28;20187;-85
2023/12/13 06:48:55;;;;;;;13.30;3.80;;;7.50;99.90;;;;;;5023081;28;20217;-85
2023/12/13 06:51:21;;;;;;;5.38;3.35;;;7.40;99.90;;;;;;5020538;28;20195;-85
2023/12/13 06:53:46;;;;;;;5.97;3.60;;;7.30;99.90;;;;;;5023997;28;20722;-85
2023/12/13 06:56:12;;;;;;;5.05;4.15;;;7.20;99.90;;;;;;5021873;28;20179;-84
2023/12/13 06:58:38;;;;;;;11.15;4.80;;;7.10;99.90;;;;;;5032427;28;20198;-85
2023/12/13 07:01:04;;;;;;;11.48;5.72;;;7.10;99.90;;;;;;5033516;28;20182;-85
2023/12/13 07:03:31;;;;;;;10.40;4.53;;;7.00;99.90;;;;;;5016393;28;20212;-85
2023/12/13 07:05:57;;;;;;;8.63;4.03;;;7.00;99.90;;;;;;5032364;28;20179;-85
2023/12/13 07:08:22;;;;;;;8.68;3.88;;;6.90;99.90;;;;;;5032095;28;20198;-85
2023/12/13 07:10:48;;;;;;;8.35;4.97;;;6.90;99.90;;;;;;5032107;28;20238;-85
2023/12/13 07:13:14;;;;;;;11.63;6.97;;;6.90;99.90;;;;;;5032549;28;20206;-85
2023/12/13 07:15:39;;;;;;;9.60;7.32;;;6.90;99.90;;;;;;5032192;28;20195;-85
2023/12/13 07:18:05;;;;;;;8.95;7.65;;;6.80;99.90;;;;;;5032271;28;20206;-85
2023/12/13 07:20:31;;;;;;;11.90;7.45;;;6.80;99.90;;;;;;5032259;28;20236;-85
2023/12/13 07:22:57;;;;;;;10.45;7.10;;;6.90;99.90;;;;;;5032318;28;20213;-85
2023/12/13 07:25:23;;;;;;;12.35;5.20;;;6.90;99.90;;;;;;5032278;28;20179;-85
2023/12/13 07:27:48;;;;;;;9.90;5.00;;;7.00;99.90;;;;;;5032719;28;20213;-85
2023/12/13 07:30:14;;;;;;;14.25;5.10;;;7.00;99.90;;;;;;5031913;28;20221;-85
2023/12/13 07:32:41;;;;;;;9.40;5.00;;;6.90;99.90;;;;;;5022817;28;20172;-85
2023/12/13 07:35:07;;;;;;;12.18;8.55;;;6.90;99.90;;;;;;5012261;28;20179;-85
2023/12/13 07:37:40;;;;;;;7.68;5.38;;;6.90;99.90;;;;;;5013451;28;20194;-85
2023/12/13 07:40:08;;;;;;;9.23;5.32;;;6.90;99.90;;;;;;5013544;28;20199;-86
2023/12/13 07:42:34;;;;;;;9.40;5.45;;;7.00;99.90;;;;;;5012194;28;20270;-86
2023/12/13 07:45:00;;;;;;;7.93;5.18;;;6.90;99.90;;;;;;5013283;28;20186;-86
2023/12/13 07:47:25;;;;;;;10.35;5.32;;;6.90;99.90;;;;;;5012649;28;20323;-85
2023/12/13 07:49:53;;;;;;;7.40;4.90;;;6.90;99.90;;;;;;5012155;28;20651;-85
2023/12/13 07:52:18;;;;;;;9.68;4.68;;;6.90;99.90;;;;;;5012460;28;20202;-85
2023/12/13 07:54:44;;;;;;;8.00;4.47;;;6.90;99.90;;;;;;5012290;28;20175;-85
2023/12/13 07:57:12;;;;;;;9.30;4.53;;;7.00;99.90;;;;;;5012667;28;20188;-85
2023/12/13 07:59:37;;;;;;;9.32;5.63;;;7.10;99.90;;;;;;5012040;28;20677;-85
2023/12/13 08:02:04;;;;;;;11.90;5.25;;;7.10;99.90;;;;;;5012313;28;20176;-85
2023/12/13 08:04:30;;;;;;;11.05;5.53;;;7.20;99.90;;;;;;5015372;28;20184;-85
2023/12/13 08:06:55;;;;;;;7.95;4.70;;;7.30;99.90;;;;;;5016301;28;20245;-85
2023/12/13 08:09:21;;;;;;;11.85;4.60;;;7.40;99.90;;;;;;5015685;28;20194;-85
2023/12/13 08:11:47;;;;;;;10.52;4.57;;;7.50;99.90;;;;;;5016537;28;20188;-85
2023/12/13 08:14:14;;;;;;;9.57;4.80;;;7.40;99.90;;;;;;5016371;28;20168;-85
2023/12/13 08:16:40;;;;;;;9.30;4.70;;;7.50;99.90;;;;;;5015664;28;20206;-85
2023/12/13 08:19:06;;;;;;;7.03;4.47;;;7.60;99.90;;;;;;5015925;28;20187;-85
2023/12/13 08:21:32;;;;;;;14.73;4.82;;;7.70;99.90;;;;;;5015584;28;20183;-85
2023/12/13 08:23:58;;;;;;;11.07;4.47;;;7.70;99.90;;;;;;5016436;28;20271;-85
2023/12/13 08:26:27;;;;;;;9.77;4.35;;;7.80;99.90;;;;;;5015332;28;20176;-85
2023/12/13 08:28:52;;;;;;;11.27;5.22;;;7.80;99.90;;;;;;5015684;28;20206;-85
2023/12/13 08:31:18;;;;;;;12.43;6.05;;;7.90;99.90;;;;;;5015306;28;20203;-85
2023/12/13 08:33:44;;;;;;;10.18;7.03;;;7.90;99.90;;;;;;5015172;28;20639;-85
2023/12/13 08:36:11;;;;;;;7.47;4.40;;;7.90;99.90;;;;;;5014893;28;20186;-85
2023/12/13 08:38:40;;;;;;;11.88;3.97;;;8.00;99.90;;;;;;5014885;28;20248;-85
2023/12/13 08:41:11;;;;;;;8.20;3.80;;;8.10;99.90;;;;;;5032009;28;20192;-85
2023/12/13 08:43:38;;;;;;;7.15;4.05;;;8.10;99.90;;;;;;5015751;28;20179;-85
2023/12/13 08:46:04;;;;;;;11.77;3.80;;;8.10;99.90;;;;;;5015597;28;20186;-85
2023/12/13 08:48:30;;;;;;;7.00;3.80;;;8.20;99.90;;;;;;5014629;28;20590;-85
2023/12/13 08:50:57;;;;;;;7.72;5.07;;;8.20;99.90;;;;;;5015557;28;20215;-85
2023/12/13 08:53:22;;;;;;;10.65;5.57;;;8.30;99.90;;;;;;5015474;28;20176;-85
2023/12/13 08:55:48;;;;;;;10.45;5.93;;;8.30;99.90;;;;;;5014706;28;20176;-85
2023/12/13 08:58:13;;;;;;;6.85;5.18;;;8.40;99.90;;;;;;5015426;28;20230;-85
2023/12/13 09:00:39;;;;;;;9.18;5.90;;;8.40;99.90;;;;;;5015375;28;20614;-85
2023/12/13 09:03:04;;;;;;;8.75;5.57;;;8.40;99.90;;;;;;5014869;28;20183;-85
2023/12/13 09:05:30;;;;;;;13.55;6.55;;;8.40;99.90;;;;;;5014885;28;20262;-85
2023/12/13 09:07:56;;;;;;;9.00;5.47;;;8.40;99.90;;;;;;5014740;28;20199;-84
2023/12/13 09:10:23;;;;;;;10.40;5.70;;;8.50;99.90;;;;;;5014324;28;20199;-85
2023/12/13 09:12:49;;;;;;;7.25;5.30;;;8.50;99.90;;;;;;5014628;28;20186;-84
2023/12/13 09:15:18;;;;;;;13.70;9.45;;;8.60;99.90;;;;;;5013837;28;20188;-85
2023/12/13 09:17:47;;;;;;;23.00;14.63;;;8.40;99.90;;;;;;5014497;28;20200;-85
2023/12/13 09:20:16;;;;;;;29.20;19.35;;;8.50;99.90;;;;;;5031091;28;20182;-85
2023/12/13 09:22:43;;;;;;;41.17;24.45;;;8.50;99.90;;;;;;5031565;28;20623;-85
2023/12/13 09:25:14;;;;;;;45.28;30.02;;;8.40;99.90;;;;;;5031316;28;20541;-85
2023/12/13 09:27:40;;;;;;;38.47;25.83;;;8.40;99.90;;;;;;5030635;28;20231;-85
2023/12/13 09:30:09;;;;;;;39.33;25.73;;;8.50;99.90;;;;;;5030742;28;20601;-85
2023/12/13 09:32:34;;;;;;;18.73;14.15;;;8.50;99.90;;;;;;5030557;28;20171;-85
2023/12/13 09:35:00;;;;;;;24.30;16.85;;;8.50;99.90;;;;;;5030935;28;20183;-85
2023/12/13 09:37:26;;;;;;;28.15;17.45;;;8.60;99.90;;;;;;5030673;28;20202;-85
2023/12/13 09:39:52;;;;;;;20.25;14.15;;;8.60;99.90;;;;;;5030292;28;20257;-85
2023/12/13 09:42:17;;;;;;;17.08;8.90;;;8.60;99.90;;;;;;5031185;28;20211;-84
2023/12/13 09:44:44;;;;;;;9.23;6.63;;;8.70;99.90;;;;;;5014072;28;20179;-84
2023/12/13 09:47:12;;;;;;;8.38;4.75;;;8.80;99.90;;;;;;5013525;28;20200;-84
2023/12/13 09:49:39;;;;;;;9.10;5.47;;;8.80;99.90;;;;;;5014331;28;20179;-84
2023/12/13 09:52:07;;;;;;;8.02;5.53;;;8.90;99.90;;;;;;5013911;28;20253;-84
2023/12/13 09:54:35;;;;;;;7.90;4.90;;;8.90;99.90;;;;;;5013774;28;20639;-84
2023/12/13 09:57:03;;;;;;;6.68;4.60;;;9.00;99.90;;;;;;5013675;28;20273;-85
2023/12/13 09:59:29;;;;;;;7.55;4.80;;;9.00;99.90;;;;;;5013475;28;20179;-85
2023/12/13 10:01:56;;;;;;;8.20;5.07;;;9.00;99.90;;;;;;5013942;28;20183;-85
2023/12/13 10:04:28;;;;;;;7.68;4.80;;;9.00;99.90;;;;;;5013419;28;20182;-85
2023/12/13 10:06:56;;;;;;;14.52;7.13;;;9.10;99.90;;;;;;5013427;28;20223;-85
2023/12/13 10:09:28;;;;;;;10.70;6.50;;;9.10;99.90;;;;;;5013499;28;20191;-85
2023/12/13 10:11:55;;;;;;;17.77;9.07;;;9.10;99.90;;;;;;5013565;28;20242;-85
2023/12/13 10:14:20;;;;;;;19.83;11.40;;;9.00;99.90;;;;;;5013253;28;20270;-85
2023/12/13 10:16:46;;;;;;;10.98;6.20;;;9.00;99.90;;;;;;5030684;28;20286;-85
2023/12/13 10:19:12;;;;;;;11.10;5.95;;;8.90;99.90;;;;;;5013358;28;20175;-85
2023/12/13 10:21:38;;;;;;;11.25;5.43;;;8.80;99.90;;;;;;5013103;28;20234;-85
2023/12/13 10:24:07;;;;;;;7.30;5.18;;;8.90;99.90;;;;;;5013381;28;20191;-85
2023/12/13 10:26:36;;;;;;;14.88;5.97;;;8.80;99.90;;;;;;5012703;28;20219;-85
2023/12/13 10:29:03;;;;;;;9.05;5.68;;;8.90;99.90;;;;;;5013263;28;20188;-84
2023/12/13 10:31:31;;;;;;;8.90;5.30;;;8.90;99.90;;;;;;5013252;28;20290;-85
2023/12/13 10:33:56;;;;;;;9.73;5.53;;;9.10;99.90;;;;;;5012936;28;20557;-85
2023/12/13 10:36:25;;;;;;;12.82;5.45;;;9.20;99.90;;;;;;5013242;28;20176;-85
2023/12/13 10:38:52;;;;;;;13.60;5.70;;;9.10;99.90;;;;;;5012923;28;20175;-85
2023/12/13 10:41:27;;;;;;;6.63;5.07;;;9.10;99.90;;;;;;5012623;28;20183;-85
2023/12/13 10:43:58;;;;;;;8.02;4.75;;;9.10;99.90;;;;;;5013932;28;20532;-85
2023/12/13 10:46:33;;;;;;;7.97;4.45;;;9.20;99.90;;;;;;5012656;28;20175;-84
2023/12/13 10:48:59;;;;;;;7.55;4.50;;;9.10;99.90;;;;;;5013194;28;20178;-84
2023/12/13 10:51:27;;;;;;;5.80;4.47;;;9.00;99.90;;;;;;5012921;28;20222;-84
2023/12/13 10:53:55;;;;;;;7.95;5.05;;;9.00;99.90;;;;;;5012869;28;20219;-84
2023/12/13 10:56:21;;;;;;;10.25;5.10;;;9.00;99.90;;;;;;5013539;28;20195;-84
2023/12/13 10:58:47;;;;;;;11.50;8.88;;;8.90;99.90;;;;;;5013370;28;20581;-84
2023/12/13 11:01:14;;;;;;;11.55;8.18;;;8.90;99.90;;;;;;5013153;28;20175;-84
2023/12/13 11:03:45;;;;;;;9.95;6.32;;;9.00;99.90;;;;;;5012965;28;20278;-84
2023/12/13 11:06:17;;;;;;;12.80;6.93;;;9.00;99.90;;;;;;5013562;28;20176;-84
2023/12/13 11:08:43;;;;;;;15.95;11.50;;;8.90;99.90;;;;;;5013644;28;20246;-84
2023/12/13 11:11:13;;;;;;;12.10;9.68;;;9.00;99.90;;;;;;5028909;28;20213;-84
2023/12/13 11:13:47;;;;;;;14.55;8.25;;;9.10;99.90;;;;;;5012449;28;20175;-84
2023/12/13 11:16:14;;;;;;;10.82;7.25;;;9.20;99.90;;;;;;5012439;28;20187;-84
2023/12/13 11:18:40;;;;;;;11.63;5.72;;;9.40;99.90;;;;;;5012046;28;20195;-84
2023/12/13 11:21:06;;;;;;;12.52;6.63;;;9.50;99.90;;;;;;5012482;28;20210;-84
2023/12/13 11:23:32;;;;;;;8.57;5.90;;;9.60;99.90;;;;;;5013428;28;20681;-84
2023/12/13 11:25:58;;;;;;;9.40;6.47;;;9.60;99.90;;;;;;5012463;28;20266;-84
2023/12/13 11:28:24;;;;;;;15.73;8.77;;;9.60;99.90;;;;;;5012884;28;20279;-86
2023/12/13 11:30:53;;;;;;;14.02;7.40;;;9.60;99.90;;;;;;5012198;28;20196;-86
2023/12/13 11:33:21;;;;;;;16.08;10.75;;;9.60;99.90;;;;;;5013142;28;20195;-86
2023/12/13 11:35:49;;;;;;;12.25;7.47;;;9.70;99.90;;;;;;5028992;28;20216;-86
2023/12/13 11:38:16;;;;;;;16.67;10.88;;;9.70;99.90;;;;;;5016153;28;20543;-86
2023/12/13 11:40:42;;;;;;;15.55;9.57;;;9.80;99.90;;;;;;5035820;28;20179;-86
2023/12/13 11:43:12;;;;;;;12.38;7.68;;;9.60;99.90;;;;;;5016581;28;20180;-86
2023/12/13 11:45:47;;;;;;;9.55;7.95;;;9.60;99.90;;;;;;5017360;28;20176;-86
2023/12/13 11:48:12;;;;;;;14.68;10.10;;;9.50;99.90;;;;;;5016745;28;20290;-86
2023/12/13 11:50:38;;;;;;;11.93;7.78;;;9.50;99.90;;;;;;5021948;28;20263;-86
2023/12/13 11:53:06;;;;;;;9.10;8.20;;;9.60;99.90;;;;;;5027061;28;20179;-84
2023/12/13 11:55:32;;;;;;;11.35;7.10;;;9.70;99.90;;;;;;5027160;28;20170;-84
2023/12/13 11:58:00;;;;;;;11.95;7.50;;;9.80;99.90;;;;;;5016275;28;20199;-84
2023/12/13 12:00:27;;;;;;;11.38;7.20;;;9.80;99.90;;;;;;5016330;28;20609;-84
2023/12/13 12:02:54;;;;;;;7.32;5.38;;;9.90;99.90;;;;;;5016858;28;20179;-84
2023/12/13 12:05:21;;;;;;;6.57;5.13;;;9.80;99.90;;;;;;5015589;28;20179;-84
2023/12/13 12:07:59;;;;;;;5.45;3.42;;;9.70;99.90;;;;;;5016396;28;20301;-84
2023/12/13 12:10:25;;;;;;;8.00;3.60;;;9.70;99.90;;;;;;5016595;28;20538;-84
2023/12/13 12:12:50;;;;;;;6.22;5.13;;;9.70;99.90;;;;;;5015583;28;20206;-84
2023/12/13 12:15:16;;;;;;;6.78;5.22;;;9.70;99.90;;;;;;5015595;28;20198;-84
2023/12/13 12:17:42;;;;;;;5.80;4.38;;;9.80;99.90;;;;;;5016273;28;20202;-84
2023/12/13 12:20:08;;;;;;;8.30;5.70;;;9.90;99.90;;;;;;5015744;28;20187;-84
2023/12/13 12:22:37;;;;;;;7.53;4.90;;;9.80;99.90;;;;;;5016102;28;20715;-84
2023/12/13 12:25:05;;;;;;;11.88;6.07;;;9.70;99.90;;;;;;5016476;28;20723;-84
2023/12/13 12:27:31;;;;;;;15.85;6.70;;;9.70;99.90;;;;;;5016216;28;20231;-84
2023/12/13 12:29:56;;;;;;;11.50;7.15;;;9.60;99.90;;;;;;5015496;28;20227;-84
2023/12/13 12:32:22;;;;;;;9.20;7.38;;;9.50;99.90;;;;;;5015126;28;20535;-84
2023/12/13 12:34:49;;;;;;;12.10;5.72;;;9.40;99.90;;;;;;5015139;28;20561;-84
2023/12/13 12:37:14;;;;;;;10.43;5.82;;;9.40;99.90;;;;;;5015062;28;20218;-84
2023/12/13 12:39:40;;;;;;;6.47;4.53;;;9.40;99.90;;;;;;5015175;28;20179;-84
2023/12/13 12:42:06;;;;;;;8.43;3.80;;;9.30;99.90;;;;;;5014984;28;20199;-84
2023/12/13 12:44:32;;;;;;;5.50;3.72;;;9.20;99.90;;;;;;5014866;28;20192;-84
2023/12/13 12:46:58;;;;;;;7.82;3.85;;;9.20;99.90;;;;;;5015908;28;20199;-84
2023/12/13 12:49:23;;;;;;;7.30;3.50;;;9.20;99.90;;;;;;5014490;28;20214;-84
2023/12/13 12:51:49;;;;;;;8.45;3.58;;;9.10;99.90;;;;;;5015054;28;20203;-84
2023/12/13 12:54:15;;;;;;;7.60;4.00;;;9.10;99.90;;;;;;5014829;28;20596;-84
2023/12/13 12:56:41;;;;;;;7.97;3.70;;;9.10;99.90;;;;;;5014845;28;20215;-84
2023/12/13 12:59:14;;;;;;;5.95;3.83;;;9.10;99.90;;;;;;5014750;28;20211;-84
2023/12/13 13:01:40;;;;;;;5.72;3.58;;;9.10;99.90;;;;;;5015236;28;20191;-85
2023/12/13 13:04:10;;;;;;;8.48;3.60;;;9.10;99.90;;;;;;5015232;28;20180;-85
2023/12/13 13:06:35;;;;;;;7.65;4.03;;;9.00;99.90;;;;;;5014482;28;20184;-85
2023/12/13 13:09:01;;;;;;;7.28;4.22;;;9.10;99.90;;;;;;5014751;28;20175;-85
2023/12/13 13:11:27;;;;;;;7.68;3.83;;;9.10;99.90;;;;;;5015283;28;20195;-85
2023/12/13 13:13:53;;;;;;;6.10;3.50;;;9.10;99.90;;;;;;5014380;28;20175;-85
2023/12/13 13:16:21;;;;;;;5.78;3.20;;;9.20;99.90;;;;;;5014241;28;20194;-85
2023/12/13 13:18:46;;;;;;;7.55;3.65;;;9.20;99.90;;;;;;5014265;28;20270;-85
2023/12/13 13:21:12;;;;;;;3.97;2.88;;;9.20;99.90;;;;;;5014598;28;20359;-85
2023/12/13 13:23:37;;;;;;;5.25;2.72;;;9.20;99.90;;;;;;5014304;28;20184;-85
2023/12/13 13:26:04;;;;;;;5.13;3.05;;;9.10;99.90;;;;;;5016724;28;20237;-85
2023/12/13 13:28:30;;;;;;;4.80;2.58;;;9.00;99.90;;;;;;5019273;28;20191;-85
2023/12/13 13:30:56;;;;;;;3.70;2.60;;;9.00;99.90;;;;;;5016618;28;20199;-85
2023/12/13 13:33:22;;;;;;;2.30;2.10;;;9.00;99.90;;;;;;5026311;28;20179;-85
2023/12/13 13:35:50;;;;;;;3.30;3.10;;;9.00;99.90;;;;;;5031299;28;20185;-85
2023/12/13 13:38:16;;;;;;;7.22;4.82;;;9.00;99.90;;;;;;5033768;28;20222;-85
2023/12/13 13:40:41;;;;;;;9.82;6.90;;;8.90;99.90;;;;;;5033662;28;20655;-85
2023/12/13 13:43:07;;;;;;;6.78;6.07;;;8.80;99.90;;;;;;5033924;28;20174;-85
2023/12/13 13:45:33;;;;;;;6.00;4.30;;;8.80;99.90;;;;;;5033657;28;20186;-85
2023/12/13 13:47:59;;;;;;;5.47;4.43;;;8.90;99.90;;;;;;5033755;28;20207;-85
2023/12/13 13:50:26;;;;;;;5.05;3.47;;;8.90;99.90;;;;;;5033592;28;20222;-85
2023/12/13 13:52:52;;;;;;;5.32;3.20;;;8.90;99.90;;;;;;5034292;28;20199;-85
2023/12/13 13:55:19;;;;;;;7.60;4.47;;;8.90;99.90;;;;;;5033359;28;20209;-85
2023/12/13 13:57:44;;;;;;;6.15;3.78;;;8.90;99.90;;;;;;5047152;22;20222;-77